sensor_id;sensor_type;location;lat;lon;timestamp;temperature;humidity
60293;DHT22;52402;52.670;6.750;2022-10-31T00:01:36;12.90;99.90
60293;DHT22;52402;52.670;6.750;2022-10-31T00:04:02;12.90;99.90
60293;DHT22;52402;52.670;6.750;2022-10-31T00:06:29;12.80;99.90
60293;DHT22;52402;52.670;6.750;2022-10-31T00:08:59;12.80;99.90
60293;DHT22;52402;52.670;6.750;2022-10-31T00:11:25;12.70;99.90
60293;DHT22;52402;52.670;6.750;2022-10-31T00:13:51;12.70;99.90
60293;DHT22;52402;52.670;6.750;2022-10-31T00:16:19;12.70;99.90
60293;DHT22;52402;52.670;6.750;2022-10-31T00:18:51;12.60;99.90
60293;DHT22;52402;52.670;6.750;2022-10-31T00:21:17;12.60;99.90
60293;DHT22;52402;52.670;6.750;2022-10-31T00:23:43;12.60;99.90
60293;DHT22;52402;52.670;6.750;2022-10-31T00:26:09;12.60;99.90
60293;DHT22;52402;52.670;6.750;2022-10-31T00:28:35;12.60;99.90
60293;DHT22;52402;52.670;6.750;2022-10-31T00:31:04;12.60;99.90
60293;DHT22;52402;52.670;6.750;2022-10-31T00:33:32;12.50;99.90
60293;DHT22;52402;52.670;6.750;2022-10-31T00:35:58;12.60;99.90
60293;DHT22;52402;52.670;6.750;2022-10-31T00:38:23;12.50;99.90
60293;DHT22;52402;52.670;6.750;2022-10-31T00:40:49;12.50;99.90
60293;DHT22;52402;52.670;6.750;2022-10-31T00:43:15;12.50;99.90
60293;DHT22;52402;52.670;6.750;2022-10-31T00:45:41;12.50;99.90
60293;DHT22;52402;52.670;6.750;2022-10-31T00:48:07;12.50;99.90
60293;DHT22;52402;52.670;6.750;2022-10-31T00:50:33;12.40;99.90
60293;DHT22;52402;52.670;6.750;2022-10-31T00:52:59;12.50;99.90
60293;DHT22;52402;52.670;6.750;2022-10-31T00:55:24;12.40;99.90
60293;DHT22;52402;52.670;6.750;2022-10-31T00:57:50;12.40;99.90
60293;DHT22;52402;52.670;6.750;2022-10-31T01:00:16;12.40;99.90
60293;DHT22;52402;52.670;6.750;2022-10-31T01:02:41;12.40;99.90
60293;DHT22;52402;52.670;6.750;2022-10-31T01:05:07;12.40;99.90
60293;DHT22;52402;52.670;6.750;2022-10-31T01:07:37;12.40;99.90
60293;DHT22;52402;52.670;6.750;2022-10-31T01:10:04;12.40;99.90
60293;DHT22;52402;52.670;6.750;2022-10-31T01:12:29;12.30;99.90
60293;DHT22;52402;52.670;6.750;2022-10-31T01:14:55;12.30;99.90
60293;DHT22;52402;52.670;6.750;2022-10-31T01:17:21;12.30;99.90
60293;DHT22;52402;52.670;6.750;2022-10-31T01:19:46;12.30;99.90
60293;DHT22;52402;52.670;6.750;2022-10-31T01:22:12;12.30;99.90
60293;DHT22;52402;52.670;6.750;2022-10-31T01:24:37;12.30;99.90
60293;DHT22;52402;52.670;6.750;2022-10-31T01:27:03;12.30;99.90
60293;DHT22;52402;52.670;6.750;2022-10-31T01:29:29;12.20;99.90
60293;DHT22;52402;52.670;6.750;2022-10-31T01:31:54;12.20;99.90
60293;DHT22;52402;52.670;6.750;2022-10-31T01:34:20;12.20;99.90
60293;DHT22;52402;52.670;6.750;2022-10-31T01:36:46;12.20;99.90
60293;DHT22;52402;52.670;6.750;2022-10-31T01:39:17;12.20;99.90
60293;DHT22;52402;52.670;6.750;2022-10-31T01:41:45;12.20;99.90
60293;DHT22;52402;52.670;6.750;2022-10-31T01:49:56;12.20;99.90
60293;DHT22;52402;52.670;6.750;2022-10-31T01:52:16;12.20;99.90
60293;DHT22;52402;52.670;6.750;2022-10-31T01:55:05;12.10;99.90
60293;DHT22;52402;52.670;6.750;2022-10-31T01:57:33;12.10;99.90
60293;DHT22;52402;52.670;6.750;2022-10-31T02:00:04;12.00;99.90
60293;DHT22;52402;52.670;6.750;2022-10-31T02:02:30;12.00;99.90
60293;DHT22;52402;52.670;6.750;2022-10-31T02:04:57;12.00;99.90
60293;DHT22;52402;52.670;6.750;2022-10-31T02:07:27;12.00;99.90
60293;DHT22;52402;52.670;6.750;2022-10-31T02:09:57;12.00;99.90
60293;DHT22;52402;52.670;6.750;2022-10-31T02:12:22;11.90;99.90
60293;DHT22;52402;52.670;6.750;2022-10-31T02:14:49;11.90;99.90
60293;DHT22;52402;52.670;6.750;2022-10-31T02:17:15;11.90;99.90
60293;DHT22;52402;52.670;6.750;2022-10-31T02:36:19;11.80;99.90
60293;DHT22;52402;52.670;6.750;2022-10-31T02:42:07;11.80;99.90
60293;DHT22;52402;52.670;6.750;2022-10-31T02:47:29;11.70;99.90
60293;DHT22;52402;52.670;6.750;2022-10-31T02:52:34;11.60;99.90
60293;DHT22;52402;52.670;6.750;2022-10-31T02:57:48;11.60;99.90
60293;DHT22;52402;52.670;6.750;2022-10-31T03:00:14;11.50;99.90
60293;DHT22;52402;52.670;6.750;2022-10-31T03:08:30;11.40;99.90
60293;DHT22;52402;52.670;6.750;2022-10-31T03:11:02;11.30;99.90
60293;DHT22;52402;52.670;6.750;2022-10-31T03:16:33;11.10;99.90
60293;DHT22;52402;52.670;6.750;2022-10-31T03:22:25;11.00;99.90
60293;DHT22;52402;52.670;6.750;2022-10-31T03:24:53;11.00;99.90
60293;DHT22;52402;52.670;6.750;2022-10-31T03:27:24;11.00;99.90
60293;DHT22;52402;52.670;6.750;2022-10-31T03:29:55;11.00;99.90
60293;DHT22;52402;52.670;6.750;2022-10-31T03:32:41;10.90;99.90
60293;DHT22;52402;52.670;6.750;2022-10-31T03:35:10;10.90;99.90
60293;DHT22;52402;52.670;6.750;2022-10-31T03:37:39;10.90;99.90
60293;DHT22;52402;52.670;6.750;2022-10-31T03:40:08;10.90;99.90
60293;DHT22;52402;52.670;6.750;2022-10-31T03:42:40;10.80;99.90
60293;DHT22;52402;52.670;6.750;2022-10-31T03:45:15;10.80;99.90
60293;DHT22;52402;52.670;6.750;2022-10-31T03:47:43;10.70;99.90
60293;DHT22;52402;52.670;6.750;2022-10-31T03:50:10;10.70;99.90
60293;DHT22;52402;52.670;6.750;2022-10-31T03:58:08;10.60;99.90
60293;DHT22;52402;52.670;6.750;2022-10-31T04:00:35;10.50;99.90
60293;DHT22;52402;52.670;6.750;2022-10-31T04:03:15;10.50;99.90
60293;DHT22;52402;52.670;6.750;2022-10-31T04:05:46;10.50;99.90
60293;DHT22;52402;52.670;6.750;2022-10-31T04:08:16;10.40;99.90
60293;DHT22;52402;52.670;6.750;2022-10-31T04:10:43;10.30;99.90
60293;DHT22;52402;52.670;6.750;2022-10-31T04:13:16;10.20;99.90
60293;DHT22;52402;52.670;6.750;2022-10-31T04:15:43;10.20;99.90
60293;DHT22;52402;52.670;6.750;2022-10-31T04:18:10;10.20;99.90
60293;DHT22;52402;52.670;6.750;2022-10-31T04:20:41;10.20;99.90
60293;DHT22;52402;52.670;6.750;2022-10-31T04:23:25;10.20;99.90
60293;DHT22;52402;52.670;6.750;2022-10-31T04:25:51;10.20;99.90
60293;DHT22;52402;52.670;6.750;2022-10-31T04:28:17;10.20;99.90
60293;DHT22;52402;52.670;6.750;2022-10-31T04:30:43;10.10;99.90
60293;DHT22;52402;52.670;6.750;2022-10-31T04:33:09;10.00;99.90
60293;DHT22;52402;52.670;6.750;2022-10-31T04:35:34;9.90;99.90
60293;DHT22;52402;52.670;6.750;2022-10-31T04:38:00;9.90;99.90
60293;DHT22;52402;52.670;6.750;2022-10-31T04:40:26;9.90;99.90
60293;DHT22;52402;52.670;6.750;2022-10-31T04:42:51;9.90;99.90
60293;DHT22;52402;52.670;6.750;2022-10-31T04:45:17;9.90;99.90
60293;DHT22;52402;52.670;6.750;2022-10-31T04:47:42;9.90;99.90
60293;DHT22;52402;52.670;6.750;2022-10-31T04:50:08;9.90;99.90
60293;DHT22;52402;52.670;6.750;2022-10-31T04:52:42;9.80;99.90
60293;DHT22;52402;52.670;6.750;2022-10-31T04:55:08;9.80;99.90
60293;DHT22;52402;52.670;6.750;2022-10-31T04:57:47;9.80;99.90
60293;DHT22;52402;52.670;6.750;2022-10-31T05:00:14;9.80;99.90
60293;DHT22;52402;52.670;6.750;2022-10-31T05:02:48;9.70;99.90
60293;DHT22;52402;52.670;6.750;2022-10-31T05:05:15;9.70;99.90
60293;DHT22;52402;52.670;6.750;2022-10-31T05:07:42;9.60;99.90
60293;DHT22;52402;52.670;6.750;2022-10-31T05:10:13;9.50;99.90
60293;DHT22;52402;52.670;6.750;2022-10-31T05:12:47;9.50;99.90
60293;DHT22;52402;52.670;6.750;2022-10-31T05:15:13;9.50;99.90
60293;DHT22;52402;52.670;6.750;2022-10-31T05:17:39;9.50;99.90
60293;DHT22;52402;52.670;6.750;2022-10-31T05:20:05;9.50;99.90
60293;DHT22;52402;52.670;6.750;2022-10-31T05:22:31;9.50;99.90
60293;DHT22;52402;52.670;6.750;2022-10-31T05:24:57;9.40;99.90
60293;DHT22;52402;52.670;6.750;2022-10-31T05:27:22;9.40;99.90
60293;DHT22;52402;52.670;6.750;2022-10-31T05:29:48;9.40;99.90
60293;DHT22;52402;52.670;6.750;2022-10-31T05:32:14;9.30;99.90
60293;DHT22;52402;52.670;6.750;2022-10-31T05:34:39;9.30;99.90
60293;DHT22;52402;52.670;6.750;2022-10-31T05:37:05;9.30;99.90
60293;DHT22;52402;52.670;6.750;2022-10-31T05:39:30;9.30;99.90
60293;DHT22;52402;52.670;6.750;2022-10-31T05:41:56;9.30;99.90
60293;DHT22;52402;52.670;6.750;2022-10-31T05:44:22;9.30;99.90
60293;DHT22;52402;52.670;6.750;2022-10-31T05:46:47;9.30;99.90
60293;DHT22;52402;52.670;6.750;2022-10-31T05:49:13;9.20;99.90
60293;DHT22;52402;52.670;6.750;2022-10-31T05:51:39;9.20;99.90
60293;DHT22;52402;52.670;6.750;2022-10-31T05:54:04;9.20;99.90
60293;DHT22;52402;52.670;6.750;2022-10-31T05:56:30;9.20;99.90
60293;DHT22;52402;52.670;6.750;2022-10-31T05:58:56;9.20;99.90
60293;DHT22;52402;52.670;6.750;2022-10-31T06:01:21;9.20;99.90
60293;DHT22;52402;52.670;6.750;2022-10-31T06:03:47;9.20;99.90
60293;DHT22;52402;52.670;6.750;2022-10-31T06:06:12;9.20;99.90
60293;DHT22;52402;52.670;6.750;2022-10-31T06:08:38;9.20;99.90
60293;DHT22;52402;52.670;6.750;2022-10-31T06:11:04;9.20;99.90
60293;DHT22;52402;52.670;6.750;2022-10-31T06:13:29;9.10;99.90
60293;DHT22;52402;52.670;6.750;2022-10-31T06:15:55;9.10;99.90
60293;DHT22;52402;52.670;6.750;2022-10-31T06:18:21;9.10;99.90
60293;DHT22;52402;52.670;6.750;2022-10-31T06:20:46;9.10;99.90
60293;DHT22;52402;52.670;6.750;2022-10-31T06:23:12;9.10;99.90
60293;DHT22;52402;52.670;6.750;2022-10-31T06:25:37;9.10;99.90
60293;DHT22;52402;52.670;6.750;2022-10-31T06:28:03;9.00;99.90
60293;DHT22;52402;52.670;6.750;2022-10-31T06:30:29;8.90;99.90
60293;DHT22;52402;52.670;6.750;2022-10-31T06:32:54;8.90;99.90
60293;DHT22;52402;52.670;6.750;2022-10-31T06:35:26;8.90;99.90
60293;DHT22;52402;52.670;6.750;2022-10-31T06:37:53;8.90;99.90
60293;DHT22;52402;52.670;6.750;2022-10-31T06:40:18;8.90;99.90
60293;DHT22;52402;52.670;6.750;2022-10-31T06:42:44;8.80;99.90
60293;DHT22;52402;52.670;6.750;2022-10-31T06:45:10;8.90;99.90
60293;DHT22;52402;52.670;6.750;2022-10-31T06:47:35;8.90;99.90
60293;DHT22;52402;52.670;6.750;2022-10-31T06:50:01;8.80;99.90
60293;DHT22;52402;52.670;6.750;2022-10-31T06:52:26;8.80;99.90
60293;DHT22;52402;52.670;6.750;2022-10-31T06:54:52;8.80;99.90
60293;DHT22;52402;52.670;6.750;2022-10-31T06:57:17;8.70;99.90
60293;DHT22;52402;52.670;6.750;2022-10-31T06:59:43;8.70;99.90
60293;DHT22;52402;52.670;6.750;2022-10-31T07:02:09;8.70;99.90
60293;DHT22;52402;52.670;6.750;2022-10-31T07:04:35;8.60;99.90
60293;DHT22;52402;52.670;6.750;2022-10-31T07:07:01;8.50;99.90
60293;DHT22;52402;52.670;6.750;2022-10-31T07:09:27;8.50;99.90
60293;DHT22;52402;52.670;6.750;2022-10-31T07:11:53;8.50;99.90
60293;DHT22;52402;52.670;6.750;2022-10-31T07:14:18;8.60;99.90
60293;DHT22;52402;52.670;6.750;2022-10-31T07:16:48;8.60;99.90
60293;DHT22;52402;52.670;6.750;2022-10-31T07:19:13;8.60;99.90
60293;DHT22;52402;52.670;6.750;2022-10-31T07:21:39;8.60;99.90
60293;DHT22;52402;52.670;6.750;2022-10-31T07:24:05;8.70;99.90
60293;DHT22;52402;52.670;6.750;2022-10-31T07:26:30;8.60;99.90
60293;DHT22;52402;52.670;6.750;2022-10-31T07:28:56;8.60;99.90
60293;DHT22;52402;52.670;6.750;2022-10-31T07:31:21;8.70;99.90
60293;DHT22;52402;52.670;6.750;2022-10-31T07:33:47;8.70;99.90
60293;DHT22;52402;52.670;6.750;2022-10-31T07:36:12;8.70;99.90
60293;DHT22;52402;52.670;6.750;2022-10-31T07:38:38;8.80;99.90
60293;DHT22;52402;52.670;6.750;2022-10-31T07:41:04;8.80;99.90
60293;DHT22;52402;52.670;6.750;2022-10-31T07:43:29;8.80;99.90
60293;DHT22;52402;52.670;6.750;2022-10-31T07:45:55;8.80;99.90
60293;DHT22;52402;52.670;6.750;2022-10-31T07:48:20;8.90;99.90
60293;DHT22;52402;52.670;6.750;2022-10-31T07:50:46;8.90;99.90
60293;DHT22;52402;52.670;6.750;2022-10-31T07:53:13;9.00;99.90
60293;DHT22;52402;52.670;6.750;2022-10-31T07:55:39;9.00;99.90
60293;DHT22;52402;52.670;6.750;2022-10-31T07:58:06;9.10;99.90
60293;DHT22;52402;52.670;6.750;2022-10-31T08:00:34;9.10;99.90
60293;DHT22;52402;52.670;6.750;2022-10-31T08:03:01;9.10;99.90
60293;DHT22;52402;52.670;6.750;2022-10-31T08:05:27;9.20;99.90
60293;DHT22;52402;52.670;6.750;2022-10-31T08:07:53;9.20;99.90
60293;DHT22;52402;52.670;6.750;2022-10-31T08:10:19;9.30;99.90
60293;DHT22;52402;52.670;6.750;2022-10-31T08:12:45;9.40;99.90
60293;DHT22;52402;52.670;6.750;2022-10-31T08:15:10;9.50;99.90
60293;DHT22;52402;52.670;6.750;2022-10-31T08:17:36;9.60;99.90
60293;DHT22;52402;52.670;6.750;2022-10-31T08:20:03;9.70;99.90
60293;DHT22;52402;52.670;6.750;2022-10-31T08:22:29;9.70;99.90
60293;DHT22;52402;52.670;6.750;2022-10-31T08:24:55;9.80;99.90
60293;DHT22;52402;52.670;6.750;2022-10-31T08:27:20;9.90;99.90
60293;DHT22;52402;52.670;6.750;2022-10-31T08:29:46;10.00;99.90
60293;DHT22;52402;52.670;6.750;2022-10-31T08:32:12;10.00;99.90
60293;DHT22;52402;52.670;6.750;2022-10-31T08:34:37;10.10;99.90
60293;DHT22;52402;52.670;6.750;2022-10-31T08:37:03;10.20;99.90
60293;DHT22;52402;52.670;6.750;2022-10-31T08:39:28;10.20;99.90
60293;DHT22;52402;52.670;6.750;2022-10-31T08:41:54;10.30;99.90
60293;DHT22;52402;52.670;6.750;2022-10-31T08:44:20;10.40;99.90
60293;DHT22;52402;52.670;6.750;2022-10-31T08:46:45;10.60;99.90
60293;DHT22;52402;52.670;6.750;2022-10-31T08:49:11;10.80;99.90
60293;DHT22;52402;52.670;6.750;2022-10-31T08:51:37;10.90;99.90
60293;DHT22;52402;52.670;6.750;2022-10-31T08:54:03;11.10;99.90
60293;DHT22;52402;52.670;6.750;2022-10-31T08:56:28;11.30;99.90
60293;DHT22;52402;52.670;6.750;2022-10-31T08:58:54;11.40;99.90
60293;DHT22;52402;52.670;6.750;2022-10-31T09:01:19;11.60;99.90
60293;DHT22;52402;52.670;6.750;2022-10-31T09:03:45;11.80;99.90
60293;DHT22;52402;52.670;6.750;2022-10-31T09:06:11;12.00;99.90
60293;DHT22;52402;52.670;6.750;2022-10-31T09:08:36;12.10;99.90
60293;DHT22;52402;52.670;6.750;2022-10-31T09:11:03;12.30;99.90
60293;DHT22;52402;52.670;6.750;2022-10-31T09:13:29;12.40;99.90
60293;DHT22;52402;52.670;6.750;2022-10-31T09:15:56;12.40;99.90
60293;DHT22;52402;52.670;6.750;2022-10-31T09:18:23;12.50;99.90
60293;DHT22;52402;52.670;6.750;2022-10-31T09:20:49;12.50;99.90
60293;DHT22;52402;52.670;6.750;2022-10-31T09:23:20;12.60;99.90
60293;DHT22;52402;52.670;6.750;2022-10-31T09:25:47;12.60;99.90
60293;DHT22;52402;52.670;6.750;2022-10-31T09:28:15;12.70;99.90
60293;DHT22;52402;52.670;6.750;2022-10-31T09:30:41;12.70;99.90
60293;DHT22;52402;52.670;6.750;2022-10-31T09:33:10;12.80;99.90
60293;DHT22;52402;52.670;6.750;2022-10-31T09:35:37;12.90;99.90
60293;DHT22;52402;52.670;6.750;2022-10-31T09:38:09;12.90;99.90
60293;DHT22;52402;52.670;6.750;2022-10-31T09:40:40;13.00;99.90
60293;DHT22;52402;52.670;6.750;2022-10-31T09:51:55;13.30;99.90
60293;DHT22;52402;52.670;6.750;2022-10-31T09:55:23;13.30;99.90
60293;DHT22;52402;52.670;6.750;2022-10-31T09:57:41;13.40;99.90
60293;DHT22;52402;52.670;6.750;2022-10-31T10:00:14;13.40;99.90
60293;DHT22;52402;52.670;6.750;2022-10-31T10:02:46;13.50;99.90
60293;DHT22;52402;52.670;6.750;2022-10-31T10:05:36;13.60;99.90
60293;DHT22;52402;52.670;6.750;2022-10-31T10:08:09;13.70;99.90
60293;DHT22;52402;52.670;6.750;2022-10-31T10:19:09;13.90;99.90
60293;DHT22;52402;52.670;6.750;2022-10-31T10:24:57;14.00;99.90
60293;DHT22;52402;52.670;6.750;2022-10-31T10:30:19;14.10;99.90
60293;DHT22;52402;52.670;6.750;2022-10-31T10:32:58;14.10;99.90
60293;DHT22;52402;52.670;6.750;2022-10-31T10:37:55;14.20;99.90
60293;DHT22;52402;52.670;6.750;2022-10-31T10:40:25;14.20;99.90
60293;DHT22;52402;52.670;6.750;2022-10-31T10:42:59;14.30;99.90
60293;DHT22;52402;52.670;6.750;2022-10-31T10:49:36;14.30;99.90
60293;DHT22;52402;52.670;6.750;2022-10-31T10:52:41;14.40;99.90
60293;DHT22;52402;52.670;6.750;2022-10-31T10:54:59;14.50;99.90
60293;DHT22;52402;52.670;6.750;2022-10-31T10:57:58;14.50;99.90
60293;DHT22;52402;52.670;6.750;2022-10-31T11:00:31;14.50;99.90
60293;DHT22;52402;52.670;6.750;2022-10-31T11:02:58;14.60;99.90
60293;DHT22;52402;52.670;6.750;2022-10-31T11:05:24;14.60;99.90
60293;DHT22;52402;52.670;6.750;2022-10-31T11:07:51;14.60;99.90
60293;DHT22;52402;52.670;6.750;2022-10-31T11:10:17;14.70;99.90
60293;DHT22;52402;52.670;6.750;2022-10-31T11:12:45;14.70;99.90
60293;DHT22;52402;52.670;6.750;2022-10-31T11:15:23;14.80;99.90
60293;DHT22;52402;52.670;6.750;2022-10-31T11:17:55;14.90;99.90
60293;DHT22;52402;52.670;6.750;2022-10-31T11:20:32;14.90;99.90
60293;DHT22;52402;52.670;6.750;2022-10-31T11:23:19;14.90;99.90
60293;DHT22;52402;52.670;6.750;2022-10-31T11:26:05;15.00;99.90
60293;DHT22;52402;52.670;6.750;2022-10-31T11:28:32;15.00;99.90
60293;DHT22;52402;52.670;6.750;2022-10-31T11:31:05;15.10;99.90
60293;DHT22;52402;52.670;6.750;2022-10-31T11:33:47;15.10;99.90
60293;DHT22;52402;52.670;6.750;2022-10-31T11:36:23;15.10;99.90
60293;DHT22;52402;52.670;6.750;2022-10-31T11:38:50;15.10;99.90
60293;DHT22;52402;52.670;6.750;2022-10-31T11:41:27;15.20;99.90
60293;DHT22;52402;52.670;6.750;2022-10-31T11:43:59;15.20;99.90
60293;DHT22;52402;52.670;6.750;2022-10-31T11:46:40;15.20;99.90
60293;DHT22;52402;52.670;6.750;2022-10-31T11:51:53;15.30;99.90
60293;DHT22;52402;52.670;6.750;2022-10-31T11:54:24;15.30;99.90
60293;DHT22;52402;52.670;6.750;2022-10-31T11:56:51;15.30;99.90
60293;DHT22;52402;52.670;6.750;2022-10-31T11:59:31;15.30;99.90
60293;DHT22;52402;52.670;6.750;2022-10-31T12:02:01;15.30;99.90
60293;DHT22;52402;52.670;6.750;2022-10-31T12:04:40;15.30;99.90
60293;DHT22;52402;52.670;6.750;2022-10-31T12:07:06;15.40;99.90
60293;DHT22;52402;52.670;6.750;2022-10-31T12:09:36;15.40;99.90
60293;DHT22;52402;52.670;6.750;2022-10-31T12:17:49;15.60;99.90
60293;DHT22;52402;52.670;6.750;2022-10-31T12:23:13;15.70;99.90
60293;DHT22;52402;52.670;6.750;2022-10-31T12:25:43;15.70;99.90
60293;DHT22;52402;52.670;6.750;2022-10-31T12:31:09;15.80;99.90
60293;DHT22;52402;52.670;6.750;2022-10-31T12:33:51;15.90;99.90
60293;DHT22;52402;52.670;6.750;2022-10-31T12:49:39;16.30;99.90
60293;DHT22;52402;52.670;6.750;2022-10-31T12:57:58;16.50;99.90
60293;DHT22;52402;52.670;6.750;2022-10-31T13:00:26;16.50;99.90
60293;DHT22;52402;52.670;6.750;2022-10-31T13:03:14;16.50;99.90
60293;DHT22;52402;52.670;6.750;2022-10-31T13:05:47;16.50;99.90
60293;DHT22;52402;52.670;6.750;2022-10-31T13:08:20;16.50;99.90
60293;DHT22;52402;52.670;6.750;2022-10-31T13:11:36;16.40;99.90
60293;DHT22;52402;52.670;6.750;2022-10-31T13:16:35;16.30;99.90
60293;DHT22;52402;52.670;6.750;2022-10-31T13:19:10;16.20;99.90
60293;DHT22;52402;52.670;6.750;2022-10-31T13:24:10;16.00;99.90
60293;DHT22;52402;52.670;6.750;2022-10-31T13:26:45;16.00;99.90
60293;DHT22;52402;52.670;6.750;2022-10-31T13:29:20;16.00;99.90
60293;DHT22;52402;52.670;6.750;2022-10-31T13:31:47;16.00;99.90
60293;DHT22;52402;52.670;6.750;2022-10-31T13:37:01;16.00;99.90
60293;DHT22;52402;52.670;6.750;2022-10-31T13:41:59;16.00;99.90
60293;DHT22;52402;52.670;6.750;2022-10-31T13:44:28;16.00;99.90
60293;DHT22;52402;52.670;6.750;2022-10-31T13:46:55;16.00;99.90
60293;DHT22;52402;52.670;6.750;2022-10-31T13:54:38;16.00;99.90
60293;DHT22;52402;52.670;6.750;2022-10-31T13:59:49;16.10;99.90
60293;DHT22;52402;52.670;6.750;2022-10-31T14:02:17;16.10;99.90
60293;DHT22;52402;52.670;6.750;2022-10-31T14:04:52;16.20;99.90
60293;DHT22;52402;52.670;6.750;2022-10-31T14:07:21;16.20;99.90
60293;DHT22;52402;52.670;6.750;2022-10-31T14:10:03;16.30;99.90
60293;DHT22;52402;52.670;6.750;2022-10-31T14:12:44;16.30;99.90
60293;DHT22;52402;52.670;6.750;2022-10-31T14:17:57;16.30;99.90
60293;DHT22;52402;52.670;6.750;2022-10-31T14:23:44;16.20;99.90
60293;DHT22;52402;52.670;6.750;2022-10-31T14:28:49;16.10;99.90
60293;DHT22;52402;52.670;6.750;2022-10-31T14:34:27;16.10;99.90
60293;DHT22;52402;52.670;6.750;2022-10-31T14:44:55;15.80;99.90
60293;DHT22;52402;52.670;6.750;2022-10-31T14:50:50;15.80;99.90
60293;DHT22;52402;52.670;6.750;2022-10-31T14:53:20;15.70;99.90
60293;DHT22;52402;52.670;6.750;2022-10-31T14:55:51;15.70;99.90
60293;DHT22;52402;52.670;6.750;2022-10-31T14:58:25;15.60;99.90
60293;DHT22;52402;52.670;6.750;2022-10-31T15:00:55;15.60;99.90
60293;DHT22;52402;52.670;6.750;2022-10-31T15:03:31;15.60;99.90
60293;DHT22;52402;52.670;6.750;2022-10-31T15:06:01;15.50;99.90
60293;DHT22;52402;52.670;6.750;2022-10-31T15:08:54;15.50;99.90
60293;DHT22;52402;52.670;6.750;2022-10-31T15:11:23;15.40;99.90
60293;DHT22;52402;52.670;6.750;2022-10-31T15:13:58;15.40;99.90
60293;DHT22;52402;52.670;6.750;2022-10-31T15:16:28;15.40;99.90
60293;DHT22;52402;52.670;6.750;2022-10-31T15:19:07;15.30;99.90
60293;DHT22;52402;52.670;6.750;2022-10-31T15:21:36;15.30;99.90
60293;DHT22;52402;52.670;6.750;2022-10-31T15:24:05;15.30;99.90
60293;DHT22;52402;52.670;6.750;2022-10-31T15:26:38;15.30;99.90
60293;DHT22;52402;52.670;6.750;2022-10-31T15:29:13;15.30;99.90
60293;DHT22;52402;52.670;6.750;2022-10-31T15:31:49;15.20;99.90
60293;DHT22;52402;52.670;6.750;2022-10-31T15:34:25;15.20;99.90
60293;DHT22;52402;52.670;6.750;2022-10-31T15:36:53;15.20;99.90
60293;DHT22;52402;52.670;6.750;2022-10-31T15:39:18;15.10;99.90
60293;DHT22;52402;52.670;6.750;2022-10-31T15:41:51;15.00;99.90
60293;DHT22;52402;52.670;6.750;2022-10-31T15:44:32;15.00;99.90
60293;DHT22;52402;52.670;6.750;2022-10-31T15:47:16;15.00;99.90
60293;DHT22;52402;52.670;6.750;2022-10-31T15:54:57;14.80;99.90
60293;DHT22;52402;52.670;6.750;2022-10-31T15:57:24;14.80;99.90
60293;DHT22;52402;52.670;6.750;2022-10-31T15:59:51;14.70;99.90
60293;DHT22;52402;52.670;6.750;2022-10-31T16:02:21;14.70;99.90
60293;DHT22;52402;52.670;6.750;2022-10-31T16:04:53;14.70;99.90
60293;DHT22;52402;52.670;6.750;2022-10-31T16:07:19;14.60;99.90
60293;DHT22;52402;52.670;6.750;2022-10-31T16:09:59;14.50;99.90
60293;DHT22;52402;52.670;6.750;2022-10-31T16:12:34;14.50;99.90
60293;DHT22;52402;52.670;6.750;2022-10-31T16:15:00;14.40;99.90
60293;DHT22;52402;52.670;6.750;2022-10-31T16:17:27;14.40;99.90
60293;DHT22;52402;52.670;6.750;2022-10-31T16:20:05;14.30;99.90
60293;DHT22;52402;52.670;6.750;2022-10-31T16:22:35;14.30;99.90
60293;DHT22;52402;52.670;6.750;2022-10-31T16:25:11;14.30;99.90
60293;DHT22;52402;52.670;6.750;2022-10-31T16:27:37;14.20;99.90
60293;DHT22;52402;52.670;6.750;2022-10-31T16:32:55;14.20;99.90
60293;DHT22;52402;52.670;6.750;2022-10-31T16:37:58;14.20;99.90
60293;DHT22;52402;52.670;6.750;2022-10-31T16:40:24;14.10;99.90
60293;DHT22;52402;52.670;6.750;2022-10-31T16:42:50;14.20;99.90
60293;DHT22;52402;52.670;6.750;2022-10-31T16:45:21;14.10;99.90
60293;DHT22;52402;52.670;6.750;2022-10-31T16:47:48;14.10;99.90
60293;DHT22;52402;52.670;6.750;2022-10-31T16:50:20;14.10;99.90
60293;DHT22;52402;52.670;6.750;2022-10-31T16:52:46;14.10;99.90
60293;DHT22;52402;52.670;6.750;2022-10-31T16:55:13;14.10;99.90
60293;DHT22;52402;52.670;6.750;2022-10-31T16:57:42;14.10;99.90
60293;DHT22;52402;52.670;6.750;2022-10-31T17:00:13;14.00;99.90
60293;DHT22;52402;52.670;6.750;2022-10-31T17:02:39;14.00;99.90
60293;DHT22;52402;52.670;6.750;2022-10-31T17:05:05;14.00;99.90
60293;DHT22;52402;52.670;6.750;2022-10-31T17:07:31;14.00;99.90
60293;DHT22;52402;52.670;6.750;2022-10-31T17:09:56;14.00;99.90
60293;DHT22;52402;52.670;6.750;2022-10-31T17:12:25;14.00;99.90
60293;DHT22;52402;52.670;6.750;2022-10-31T17:14:51;14.00;99.90
60293;DHT22;52402;52.670;6.750;2022-10-31T17:17:18;14.00;99.90
60293;DHT22;52402;52.670;6.750;2022-10-31T17:19:43;14.00;99.90
60293;DHT22;52402;52.670;6.750;2022-10-31T17:22:12;14.00;99.90
60293;DHT22;52402;52.670;6.750;2022-10-31T17:24:39;14.00;99.90
60293;DHT22;52402;52.670;6.750;2022-10-31T17:27:05;14.00;99.90
60293;DHT22;52402;52.670;6.750;2022-10-31T17:29:31;14.00;99.90
60293;DHT22;52402;52.670;6.750;2022-10-31T17:31:57;14.00;99.90
60293;DHT22;52402;52.670;6.750;2022-10-31T17:34:24;14.00;99.90
60293;DHT22;52402;52.670;6.750;2022-10-31T17:36:51;14.00;99.90
60293;DHT22;52402;52.670;6.750;2022-10-31T17:39:20;14.00;99.90
60293;DHT22;52402;52.670;6.750;2022-10-31T17:41:49;14.00;99.90
60293;DHT22;52402;52.670;6.750;2022-10-31T17:44:16;14.00;99.90
60293;DHT22;52402;52.670;6.750;2022-10-31T17:46:41;14.00;99.90
60293;DHT22;52402;52.670;6.750;2022-10-31T17:49:07;14.00;99.90
60293;DHT22;52402;52.670;6.750;2022-10-31T17:51:34;14.00;99.90
60293;DHT22;52402;52.670;6.750;2022-10-31T17:53:59;14.00;99.90
60293;DHT22;52402;52.670;6.750;2022-10-31T17:56:25;14.00;99.90
60293;DHT22;52402;52.670;6.750;2022-10-31T17:58:51;14.00;99.90
60293;DHT22;52402;52.670;6.750;2022-10-31T18:01:17;14.00;99.90
60293;DHT22;52402;52.670;6.750;2022-10-31T18:03:43;14.00;99.90
60293;DHT22;52402;52.670;6.750;2022-10-31T18:06:10;14.00;99.90
60293;DHT22;52402;52.670;6.750;2022-10-31T18:08:37;14.00;99.90
60293;DHT22;52402;52.670;6.750;2022-10-31T18:11:07;14.00;99.90
60293;DHT22;52402;52.670;6.750;2022-10-31T18:13:34;14.00;99.90
60293;DHT22;52402;52.670;6.750;2022-10-31T18:15:59;14.00;99.90
60293;DHT22;52402;52.670;6.750;2022-10-31T18:18:25;14.00;99.90
60293;DHT22;52402;52.670;6.750;2022-10-31T18:20:51;14.00;99.90
60293;DHT22;52402;52.670;6.750;2022-10-31T18:23:16;13.90;99.90
60293;DHT22;52402;52.670;6.750;2022-10-31T18:25:42;13.90;99.90
60293;DHT22;52402;52.670;6.750;2022-10-31T18:28:08;13.90;99.90
60293;DHT22;52402;52.670;6.750;2022-10-31T18:30:38;13.90;99.90
60293;DHT22;52402;52.670;6.750;2022-10-31T18:33:04;13.90;99.90